Time;durP1;ratioP1;P1;durP2;ratioP2;P2;SDS_P1;SDS_P2;PMS_P1;PMS_P2;Temp;Humidity;BMP_temperature;BMP_pressure;BME280_temperature;BME280_humidity;BME280_pressure;Samples;Min_cycle;Max_cycle;Signal;HPM_P1;HPM_P2
2022/08/12 00:42:52;;;;;;;4.23;2.70;;;17.60;99.90;;;;;;4997060;28;20077;-73
2022/08/12 00:45:19;;;;;;;4.25;2.90;;;17.60;99.90;;;;;;4995963;28;20138;-76
2022/08/12 00:47:47;;;;;;;2.92;2.63;;;17.50;99.90;;;;;;4997045;28;20045;-67
2022/08/12 00:50:18;;;;;;;3.50;2.40;;;17.50;99.90;;;;;;4996498;28;20584;-70
2022/08/12 00:52:47;;;;;;;2.50;2.20;;;17.50;99.90;;;;;;4995636;28;20127;-68
2022/08/12 00:55:15;;;;;;;3.20;2.13;;;17.50;99.90;;;;;;4994861;28;20447;-66
2022/08/12 00:57:48;;;;;;;4.30;2.20;;;17.50;99.90;;;;;;4996173;28;20046;-67
2022/08/12 01:00:23;;;;;;;4.32;2.70;;;17.50;99.90;;;;;;4996437;28;20338;-70
2022/08/12 01:02:57;;;;;;;2.67;2.20;;;17.50;99.90;;;;;;4996105;28;20046;-71
2022/08/12 01:13:46;;;;;;;4.25;2.58;;;17.40;99.90;;;;;;4978665;28;20473;-67
2022/08/12 01:16:21;;;;;;;4.70;2.95;;;17.40;99.90;;;;;;4993815;28;20053;-67
2022/08/12 01:18:51;;;;;;;4.53;3.85;;;17.40;99.90;;;;;;5008532;28;20508;-68
2022/08/12 01:21:53;;;;;;;5.72;2.78;;;17.40;99.90;;;;;;4999153;28;20217;-72
2022/08/12 01:24:46;;;;;;;2.63;2.42;;;17.40;99.90;;;;;;4997710;28;20137;-72
2022/08/12 01:27:14;;;;;;;6.70;3.58;;;17.30;99.90;;;;;;4998667;28;20144;-70
2022/08/12 01:29:43;;;;;;;2.78;2.47;;;17.30;99.90;;;;;;5001149;28;20109;-67
2022/08/12 01:32:13;;;;;;;3.28;3.03;;;17.30;99.90;;;;;;4999894;28;20101;-70
2022/08/12 01:35:01;;;;;;;6.43;2.83;;;17.30;99.90;;;;;;5000366;28;20171;-70
2022/08/12 01:37:30;;;;;;;4.60;3.22;;;17.30;99.90;;;;;;4998819;28;20486;-69
2022/08/12 01:39:59;;;;;;;3.80;2.83;;;17.30;99.90;;;;;;5000576;28;20077;-67
2022/08/12 01:42:49;;;;;;;4.80;2.97;;;17.30;99.90;;;;;;5000641;28;20179;-70
2022/08/12 01:45:21;;;;;;;4.25;3.85;;;17.30;99.90;;;;;;4998093;28;20382;-70
2022/08/12 01:48:03;;;;;;;5.03;3.03;;;17.30;99.90;;;;;;4995565;28;20054;-66
2022/08/12 01:51:08;;;;;;;9.25;3.30;;;17.30;99.90;;;;;;4981637;28;20058;-67
2022/08/12 01:53:57;;;;;;;7.38;3.25;;;17.30;99.90;;;;;;4999431;28;20544;-75
2022/08/12 01:56:28;;;;;;;5.05;2.90;;;17.30;99.90;;;;;;5002030;28;20155;-69
2022/08/12 02:01:49;;;;;;;4.90;4.03;;;17.20;99.90;;;;;;5000672;28;20131;-67
2022/08/12 02:13:45;;;;;;;2.67;2.42;;;17.10;99.90;;;;;;4982079;28;20060;-69
2022/08/12 02:16:35;;;;;;;5.55;3.10;;;17.10;99.90;;;;;;5000354;28;20050;-71
2022/08/12 02:19:39;;;;;;;5.85;2.92;;;17.00;99.90;;;;;;4999162;28;20061;-70
2022/08/12 02:22:27;;;;;;;6.10;3.17;;;17.00;99.90;;;;;;4989530;28;20064;-70
2022/08/12 02:25:06;;;;;;;5.10;3.47;;;16.90;99.90;;;;;;5003946;28;20624;-70
2022/08/12 02:27:38;;;;;;;3.67;2.80;;;16.90;99.90;;;;;;4979928;28;20050;-72
2022/08/12 02:30:11;;;;;;;5.07;3.05;;;16.80;99.90;;;;;;4982378;28;20035;-71
2022/08/12 02:32:43;;;;;;;8.10;3.30;;;16.80;99.90;;;;;;4980325;28;20049;-75
2022/08/12 02:35:18;;;;;;;3.50;3.15;;;16.80;99.90;;;;;;4979736;28;20116;-72
2022/08/12 02:37:47;;;;;;;3.33;2.83;;;16.80;99.90;;;;;;4999015;28;20096;-72
2022/08/12 02:40:16;;;;;;;5.35;2.35;;;16.70;99.90;;;;;;5001215;28;20502;-71
2022/08/12 02:42:45;;;;;;;2.80;2.60;;;16.70;99.90;;;;;;5001320;28;20046;-69
2022/08/12 02:45:18;;;;;;;4.28;3.88;;;16.70;99.90;;;;;;4999786;28;20045;-70
2022/08/12 02:47:49;;;;;;;3.10;2.33;;;16.70;99.90;;;;;;5001156;28;20460;-67
2022/08/12 02:50:30;;;;;;;4.95;2.58;;;16.60;99.90;;;;;;5000468;28;20149;-66
2022/08/12 02:52:58;;;;;;;5.28;3.13;;;16.60;99.90;;;;;;5001200;28;20069;-67
2022/08/12 02:55:30;;;;;;;6.47;2.90;;;16.60;99.90;;;;;;4999276;28;20041;-66
2022/08/12 02:58:03;;;;;;;4.80;3.80;;;16.60;99.90;;;;;;5000810;28;20152;-68
2022/08/12 03:00:37;;;;;;;5.50;3.00;;;16.60;99.90;;;;;;5000332;28;20132;-69
2022/08/12 03:03:07;;;;;;;4.32;3.28;;;16.50;99.90;;;;;;4999214;28;20081;-70
2022/08/12 03:05:39;;;;;;;3.63;3.27;;;16.50;99.90;;;;;;4998503;28;20770;-66
2022/08/12 03:08:12;;;;;;;3.20;2.78;;;16.50;99.90;;;;;;5000911;28;20038;-70
2022/08/12 03:11:14;;;;;;;3.33;3.03;;;16.50;99.90;;;;;;5000499;28;20513;-75
2022/08/12 03:14:00;;;;;;;3.42;2.88;;;16.50;99.90;;;;;;4998105;28;20523;-70
2022/08/12 03:16:29;;;;;;;3.95;3.28;;;16.40;99.90;;;;;;4998083;28;20038;-67
2022/08/12 03:18:59;;;;;;;3.85;3.10;;;16.40;99.90;;;;;;5000799;28;20053;-68
2022/08/12 03:21:26;;;;;;;4.35;3.47;;;16.40;99.90;;;;;;4998701;28;20068;-69
2022/08/12 03:24:17;;;;;;;6.15;3.53;;;16.40;99.90;;;;;;4993939;28;20047;-69
2022/08/12 03:26:46;;;;;;;3.58;3.20;;;16.40;99.90;;;;;;4994875;28;20056;-71
2022/08/12 03:29:15;;;;;;;5.57;3.23;;;16.40;99.90;;;;;;4998030;28;20077;-73
2022/08/12 03:31:42;;;;;;;3.17;2.90;;;16.30;99.90;;;;;;5001359;28;20066;-68
2022/08/12 03:34:13;;;;;;;3.15;2.45;;;16.40;99.90;;;;;;4999239;28;20172;-72
2022/08/12 03:36:41;;;;;;;3.88;2.60;;;16.30;99.90;;;;;;5000063;28;20061;-68
2022/08/12 03:41:54;;;;;;;3.63;3.33;;;16.30;99.90;;;;;;4999693;28;20077;-68
2022/08/12 04:01:14;;;;;;;7.13;3.22;;;16.50;99.90;;;;;;4982123;28;20066;-70
2022/08/12 04:03:53;;;;;;;4.50;3.33;;;16.50;99.90;;;;;;4998972;28;20123;-68
2022/08/12 04:06:25;;;;;;;3.63;3.33;;;16.50;99.90;;;;;;4999118;28;20054;-69
2022/08/12 04:09:04;;;;;;;3.70;2.65;;;16.50;99.90;;;;;;4998690;28;20056;-69
2022/08/12 04:14:31;;;;;;;5.47;3.55;;;16.60;99.90;;;;;;4999122;28;20137;-69
2022/08/12 04:16:59;;;;;;;6.68;5.35;;;16.60;99.90;;;;;;4997824;28;20156;-70
2022/08/12 04:19:28;;;;;;;4.32;2.85;;;16.70;99.90;;;;;;4997569;28;20141;-70
2022/08/12 04:21:55;;;;;;;5.25;4.15;;;16.80;99.90;;;;;;4998072;28;20561;-69
2022/08/12 04:24:34;;;;;;;6.78;3.42;;;16.80;99.90;;;;;;4999424;28;20053;-71
2022/08/12 04:27:07;;;;;;;5.47;3.75;;;16.90;99.90;;;;;;4998717;28;20058;-69
2022/08/12 04:29:36;;;;;;;7.15;4.13;;;17.10;99.90;;;;;;4997904;28;20145;-71
2022/08/12 04:32:24;;;;;;;4.00;3.28;;;17.20;99.90;;;;;;4996993;28;21185;-66
2022/08/12 04:34:51;;;;;;;5.88;3.38;;;17.30;99.90;;;;;;4997535;28;20128;-69
2022/08/12 04:37:18;;;;;;;6.57;3.22;;;17.40;99.90;;;;;;4996001;28;20052;-66
2022/08/12 04:39:47;;;;;;;3.63;3.33;;;17.50;99.90;;;;;;4998742;28;20088;-69
2022/08/12 04:42:14;;;;;;;3.85;3.40;;;17.60;99.90;;;;;;4998094;28;20038;-72
2022/08/12 04:44:42;;;;;;;5.03;3.17;;;17.70;99.90;;;;;;4999115;28;20480;-70
2022/08/12 04:47:13;;;;;;;3.22;2.92;;;17.80;99.90;;;;;;4995202;28;20050;-69
2022/08/12 04:49:43;;;;;;;3.80;2.70;;;17.90;99.90;;;;;;4997872;28;20488;-71
2022/08/12 04:52:10;;;;;;;3.72;3.40;;;17.90;99.90;;;;;;4997965;28;20201;-70
2022/08/12 04:54:37;;;;;;;2.40;2.20;;;17.90;99.90;;;;;;4997665;28;20116;-67
2022/08/12 04:57:08;;;;;;;3.70;2.95;;;18.00;99.90;;;;;;4998134;28;20132;-68
2022/08/12 04:59:36;;;;;;;2.88;2.35;;;18.00;99.90;;;;;;4977385;28;20046;-72
2022/08/12 05:02:18;;;;;;;3.65;2.63;;;18.10;99.90;;;;;;4987933;28;20419;-71
2022/08/12 05:04:50;;;;;;;4.07;3.03;;;18.20;99.90;;;;;;4996032;28;20046;-72
2022/08/12 05:07:19;;;;;;;3.10;2.17;;;18.30;99.90;;;;;;4995218;28;20053;-68
2022/08/12 05:09:46;;;;;;;4.55;2.53;;;18.30;99.90;;;;;;4998063;28;20380;-71
2022/08/12 05:12:35;;;;;;;2.95;1.95;;;18.40;99.90;;;;;;4996765;28;20049;-69
2022/08/12 05:15:04;;;;;;;1.85;1.73;;;18.50;99.90;;;;;;4997247;28;20053;-70
2022/08/12 05:17:51;;;;;;;2.50;1.70;;;18.60;99.90;;;;;;4997620;28;20052;-71
2022/08/12 05:20:21;;;;;;;2.42;1.85;;;18.60;99.90;;;;;;4989716;28;20507;-66
2022/08/12 05:22:48;;;;;;;1.85;1.67;;;18.70;99.90;;;;;;4996579;28;20089;-77
2022/08/12 05:25:19;;;;;;;;;;;18.80;99.90;;;;;;4996535;28;20120;-72
2022/08/12 05:27:48;;;;;;;2.17;1.95;;;18.80;99.90;;;;;;4996725;28;20239;-68
2022/08/12 05:30:26;;;;;;;1.77;1.65;;;18.90;99.90;;;;;;4995255;28;20134;-68
2022/08/12 05:32:55;;;;;;;1.88;1.77;;;19.00;99.90;;;;;;4996729;28;20425;-70
2022/08/12 05:35:26;;;;;;;1.90;1.80;;;19.00;99.90;;;;;;4994642;28;20073;-71
2022/08/12 05:38:54;;;;;;;2.03;1.88;;;19.10;99.90;;;;;;4997081;28;20041;-66
2022/08/12 05:40:40;;;;;;;4.57;2.95;;;19.10;99.90;;;;;;4996245;28;20543;-72
2022/08/12 05:43:08;;;;;;;3.92;2.10;;;19.20;99.90;;;;;;4995342;28;20578;-70
2022/08/12 05:45:34;;;;;;;2.53;2.28;;;19.20;99.90;;;;;;4997047;28;20403;-68
2022/08/12 05:48:06;;;;;;;2.30;1.77;;;19.30;99.90;;;;;;4996125;28;20053;-73
2022/08/12 05:50:36;;;;;;;3.03;1.60;;;19.30;99.90;;;;;;4997709;28;20157;-69
2022/08/12 05:53:04;;;;;;;3.13;1.90;;;19.40;99.90;;;;;;4997136;28;20050;-73
2022/08/12 05:55:35;;;;;;;3.60;2.20;;;19.40;99.90;;;;;;4995447;28;20929;-66
2022/08/12 05:58:04;;;;;;;3.95;1.70;;;19.50;99.90;;;;;;5000459;28;20667;-66
2022/08/12 06:00:32;;;;;;;2.22;2.03;;;19.60;99.90;;;;;;5000553;28;20141;-67
2022/08/12 06:03:03;;;;;;;2.25;2.05;;;19.70;99.90;;;;;;5000436;28;20738;-72
2022/08/12 06:05:33;;;;;;;3.38;2.20;;;19.70;99.90;;;;;;4999480;28;20057;-66
2022/08/12 06:08:20;;;;;;;2.03;1.80;;;19.80;99.90;;;;;;4999319;28;20366;-70
2022/08/12 06:10:48;;;;;;;2.42;1.80;;;19.80;99.90;;;;;;5004005;28;20061;-67
2022/08/12 06:13:17;;;;;;;1.35;1.23;;;19.80;99.90;;;;;;4981769;28;20054;-76
2022/08/12 06:15:55;;;;;;;3.75;1.38;;;19.90;99.90;;;;;;5001020;28;20388;-67
2022/08/12 06:18:22;;;;;;;1.80;0.88;;;19.90;99.90;;;;;;4999665;28;20141;-72
2022/08/12 06:20:58;;;;;;;1.50;1.40;;;20.00;99.90;;;;;;4999917;28;20103;-68
2022/08/12 06:23:28;;;;;;;1.83;1.63;;;20.00;99.90;;;;;;4997500;28;20077;-70
2022/08/12 06:25:55;;;;;;;3.15;1.55;;;20.10;99.90;;;;;;4998616;28;20042;-68
2022/08/12 06:28:23;;;;;;;5.15;2.10;;;20.10;99.90;;;;;;4998925;28;20131;-71
2022/08/12 06:30:51;;;;;;;4.35;2.10;;;20.10;99.90;;;;;;4998536;28;20042;-66
2022/08/12 06:33:43;;;;;;;2.38;1.50;;;20.10;99.90;;;;;;4998083;28;20649;-68
2022/08/12 06:36:26;;;;;;;1.30;1.20;;;20.10;99.90;;;;;;4990490;28;20042;-73
2022/08/12 06:38:59;;;;;;;1.63;1.52;;;20.20;99.90;;;;;;4998693;28;20416;-70
2022/08/12 06:44:32;;;;;;;2.90;1.45;;;20.30;99.90;;;;;;4998119;28;20058;-69
2022/08/12 06:46:59;;;;;;;1.30;1.20;;;20.30;99.90;;;;;;4998804;28;20388;-70
2022/08/12 06:49:27;;;;;;;1.40;1.20;;;20.30;99.90;;;;;;4995241;28;20168;-73
2022/08/12 06:51:54;;;;;;;1.25;1.00;;;20.30;99.90;;;;;;4999144;28;20153;-70
2022/08/12 06:54:24;;;;;;;1.52;1.42;;;20.40;99.90;;;;;;4996404;28;20160;-70
2022/08/12 06:57:01;;;;;;;1.25;1.15;;;20.40;99.90;;;;;;4997842;28;20053;-71
2022/08/12 06:59:49;;;;;;;1.50;1.40;;;20.40;99.90;;;;;;4995640;28;21103;-68
2022/08/12 07:02:19;;;;;;;1.30;1.20;;;20.50;99.90;;;;;;4997459;28;20042;-73
2022/08/12 07:04:46;;;;;;;1.07;1.07;;;20.50;99.90;;;;;;5001214;28;20046;-67
2022/08/12 07:07:14;;;;;;;1.83;1.20;;;20.50;99.90;;;;;;4995990;28;20369;-72
2022/08/12 07:09:41;;;;;;;2.53;1.15;;;20.50;99.90;;;;;;4998192;28;20806;-71
2022/08/12 07:12:28;;;;;;;1.48;1.35;;;20.50;99.90;;;;;;4998556;28;20345;-66
2022/08/12 07:14:57;;;;;;;0.70;0.70;;;20.50;99.90;;;;;;4998243;28;20053;-66
2022/08/12 07:17:34;;;;;;;2.05;1.05;;;20.50;99.90;;;;;;4995447;28;20054;-75
2022/08/12 07:20:04;;;;;;;2.78;1.73;;;20.60;99.90;;;;;;4997112;28;20057;-70
2022/08/12 07:22:32;;;;;;;2.97;1.30;;;20.70;99.90;;;;;;4998133;28;20058;-74
2022/08/12 07:27:45;;;;;;;1.48;1.30;;;20.80;99.90;;;;;;4976777;28;20049;-69
2022/08/12 07:30:13;;;;;;;1.20;1.00;;;20.80;99.90;;;;;;4977034;28;20070;-69
2022/08/12 07:32:40;;;;;;;1.77;0.80;;;20.90;99.90;;;;;;4977659;28;20140;-68
2022/08/12 07:35:07;;;;;;;2.97;1.20;;;20.90;99.90;;;;;;4976745;28;20460;-72
2022/08/12 07:37:40;;;;;;;1.08;0.98;;;21.00;99.90;;;;;;4977370;28;20049;-69
2022/08/12 07:40:10;;;;;;;1.02;0.95;;;21.00;99.90;;;;;;4988653;28;20536;-71
2022/08/12 07:42:39;;;;;;;1.08;0.98;;;21.00;99.90;;;;;;4998842;28;20461;-72
2022/08/12 07:45:08;;;;;;;2.10;1.20;;;21.00;99.90;;;;;;4995007;28;20054;-69
2022/08/12 07:47:36;;;;;;;0.80;0.43;;;21.10;99.90;;;;;;4996806;28;20045;-72
2022/08/12 07:50:07;;;;;;;0.85;0.85;;;21.10;99.90;;;;;;4995875;28;20380;-67
2022/08/12 07:52:41;;;;;;;0.70;0.70;;;21.20;99.90;;;;;;4997140;28;20059;-71
2022/08/12 07:55:09;;;;;;;0.98;0.90;;;21.20;99.90;;;;;;4996002;28;20048;-72
2022/08/12 07:57:56;;;;;;;6.47;2.60;;;21.30;99.90;;;;;;4996847;28;20561;-69
2022/08/12 08:00:25;;;;;;;1.52;0.90;;;21.40;99.90;;;;;;4997661;28;20037;-72
2022/08/12 08:02:53;;;;;;;1.52;1.10;;;21.40;99.90;;;;;;4998475;28;20137;-74
2022/08/12 08:05:24;;;;;;;5.70;1.95;;;21.50;99.90;;;;;;4996118;28;20053;-66
2022/08/12 08:08:00;;;;;;;1.73;1.60;;;21.50;99.90;;;;;;4996651;28;20052;-75
2022/08/12 08:10:29;;;;;;;2.08;1.88;;;21.50;99.90;;;;;;4997729;28;20042;-69
2022/08/12 08:13:03;;;;;;;1.58;1.17;;;21.60;99.90;;;;;;4998031;28;20136;-71
2022/08/12 08:15:33;;;;;;;0.85;0.80;;;21.60;99.90;;;;;;4995722;28;20046;-71
2022/08/12 08:18:20;;;;;;;1.42;1.10;;;21.60;99.90;;;;;;4997486;28;20046;-73
2022/08/12 08:20:54;;;;;;;0.82;0.82;;;21.70;99.90;;;;;;4996876;28;20050;-68
2022/08/12 08:23:22;;;;;;;0.93;0.65;;;21.80;99.90;;;;;;4996168;28;20073;-72
2022/08/12 08:26:00;;;;;;;1.10;1.00;;;21.80;99.90;;;;;;4997528;28;20466;-71
2022/08/12 08:28:28;;;;;;;1.25;1.15;;;22.00;99.90;;;;;;4997104;28;20123;-71
2022/08/12 08:30:55;;;;;;;1.05;0.60;;;22.00;99.90;;;;;;4997585;28;20050;-71
2022/08/12 08:33:23;;;;;;;2.40;0.85;;;22.10;99.90;;;;;;4995312;28;20246;-68
2022/08/12 08:36:09;;;;;;;0.90;0.75;;;22.20;99.90;;;;;;4996810;28;20179;-72
2022/08/12 08:38:50;;;;;;;0.85;0.77;;;22.20;99.90;;;;;;4997739;28;20375;-68
2022/08/12 08:44:31;;;;;;;0.68;0.60;;;22.20;99.90;;;;;;4998843;28;20508;-69
2022/08/12 08:47:00;;;;;;;0.52;0.52;;;22.30;99.90;;;;;;5000012;28;20050;-70
2022/08/12 08:49:27;;;;;;;1.25;0.82;;;22.20;99.90;;;;;;4996866;28;20132;-70
2022/08/12 08:51:53;;;;;;;1.05;0.85;;;22.30;99.90;;;;;;4998097;28;20132;-74
2022/08/12 08:54:20;;;;;;;0.95;0.60;;;22.30;99.90;;;;;;4997117;28;20812;-69
2022/08/12 08:56:48;;;;;;;1.17;0.85;;;22.40;99.90;;;;;;4999486;28;20082;-67
2022/08/12 08:59:18;;;;;;;0.82;0.80;;;22.50;99.90;;;;;;4995693;28;20033;-73
2022/08/12 09:01:46;;;;;;;1.05;0.95;;;22.50;99.90;;;;;;4997129;28;20595;-68
2022/08/12 09:04:13;;;;;;;2.85;1.10;;;22.50;99.90;;;;;;4997591;28;20137;-69
2022/08/12 09:07:01;;;;;;;1.40;1.17;;;22.60;99.90;;;;;;4997516;28;20591;-67
2022/08/12 09:09:50;;;;;;;1.02;0.98;;;22.60;99.90;;;;;;4976541;28;20459;-74
2022/08/12 09:15:24;;;;;;;2.35;0.95;;;22.60;99.90;;;;;;4979215;28;20131;-67
2022/08/12 09:18:04;;;;;;;2.58;1.02;;;22.50;99.90;;;;;;5002841;28;20050;-67
2022/08/12 09:20:36;;;;;;;1.20;1.10;;;22.40;99.90;;;;;;4996587;28;20365;-72
2022/08/12 09:23:09;;;;;;;1.50;0.80;;;22.40;99.90;;;;;;4997552;28;20713;-70
2022/08/12 09:25:57;;;;;;;2.03;0.80;;;22.40;99.90;;;;;;5000431;28;20269;-70
2022/08/12 09:28:31;;;;;;;1.52;1.00;;;22.50;99.90;;;;;;5005283;28;20053;-69
2022/08/12 09:30:59;;;;;;;1.25;1.15;;;22.50;99.90;;;;;;4997998;28;20050;-68
2022/08/12 09:33:32;;;;;;;1.40;1.27;;;22.60;99.90;;;;;;4999514;28;20141;-69
2022/08/12 09:36:20;;;;;;;1.42;1.17;;;22.60;99.90;;;;;;4999989;28;20057;-71
2022/08/12 09:39:01;;;;;;;0.80;0.80;;;22.70;99.90;;;;;;5000539;28;20546;-69
2022/08/12 09:45:19;;;;;;;3.50;1.10;;;22.70;99.90;;;;;;5002843;28;20195;-69
2022/08/12 09:47:52;;;;;;;0.90;0.90;;;22.70;99.90;;;;;;4993485;28;20496;-70
2022/08/12 09:50:26;;;;;;;3.85;1.10;;;22.70;99.90;;;;;;4981107;28;20058;-70
2022/08/12 09:53:09;;;;;;;1.73;1.40;;;22.80;99.90;;;;;;4983352;28;20050;-75
2022/08/12 09:55:47;;;;;;;1.27;0.98;;;22.80;99.90;;;;;;5000666;28;20049;-71
2022/08/12 09:58:36;;;;;;;1.35;1.17;;;22.90;99.90;;;;;;5000770;28;20040;-68
2022/08/12 10:01:23;;;;;;;0.98;0.98;;;22.90;99.90;;;;;;4999465;28;20709;-73
2022/08/12 10:03:50;;;;;;;1.42;1.30;;;23.00;99.90;;;;;;5001045;28;20069;-68
2022/08/12 10:06:30;;;;;;;2.30;1.15;;;23.10;99.90;;;;;;5000634;28;20052;-70
2022/08/12 10:09:06;;;;;;;1.02;0.93;;;23.10;99.90;;;;;;5000606;28;20522;-69
2022/08/12 10:14:39;;;;;;;1.60;0.98;;;23.20;99.90;;;;;;5005660;28;20067;-69
2022/08/12 10:17:21;;;;;;;3.42;1.00;;;23.20;99.90;;;;;;4982479;28;20320;-67
2022/08/12 10:19:50;;;;;;;1.35;1.15;;;23.30;99.90;;;;;;4993421;28;20271;-72
2022/08/12 10:22:19;;;;;;;1.13;1.02;;;23.30;99.90;;;;;;4988431;28;20054;-69
2022/08/12 10:31:05;;;;;;;1.38;1.00;;;23.40;99.90;;;;;;4997030;28;20077;-69
2022/08/12 10:33:33;;;;;;;1.00;0.80;;;23.30;99.90;;;;;;4996044;28;20053;-71
2022/08/12 10:36:20;;;;;;;0.70;0.60;;;23.20;99.90;;;;;;5000669;28;20467;-70
2022/08/12 10:39:08;;;;;;;0.63;0.63;;;23.30;99.90;;;;;;4997495;28;20577;-69
2022/08/12 10:44:45;;;;;;;1.90;1.67;;;23.40;99.90;;;;;;4999053;28;20068;-70
2022/08/12 10:47:15;;;;;;;0.98;0.80;;;23.40;99.90;;;;;;4997951;28;20053;-72
2022/08/12 10:50:06;;;;;;;1.05;0.98;;;23.30;99.90;;;;;;5000374;28;20056;-69
2022/08/12 10:52:53;;;;;;;1.00;0.75;;;23.30;99.90;;;;;;4999334;28;20396;-71
2022/08/12 10:55:19;;;;;;;2.03;0.90;;;23.30;99.90;;;;;;4997492;28;20069;-69
2022/08/12 10:57:51;;;;;;;1.15;0.88;;;23.30;99.90;;;;;;4999211;28;20152;-68
2022/08/12 11:00:38;;;;;;;1.15;1.05;;;23.50;99.90;;;;;;4999253;28;20056;-69
2022/08/12 11:03:26;;;;;;;1.40;1.20;;;23.50;99.90;;;;;;4994893;28;23356;-74
2022/08/12 11:06:13;;;;;;;0.93;0.80;;;23.40;99.90;;;;;;4980162;28;20057;-71
2022/08/12 11:09:00;;;;;;;1.00;0.90;;;23.50;99.90;;;;;;4999827;28;20479;-69
2022/08/12 11:11:35;;;;;;;1.00;0.90;;;23.50;99.90;;;;;;4982415;28;20479;-69
2022/08/12 11:14:32;;;;;;;2.78;1.17;;;23.50;99.90;;;;;;4999581;28;20151;-70
2022/08/12 11:17:17;;;;;;;1.58;1.48;;;23.60;99.90;;;;;;4996171;28;20053;-71
2022/08/12 11:20:04;;;;;;;1.25;1.13;;;23.60;99.90;;;;;;4997927;28;20046;-71
2022/08/12 11:22:31;;;;;;;1.75;0.70;;;23.60;99.90;;;;;;4998356;28;20402;-71
2022/08/12 11:24:58;;;;;;;1.23;1.13;;;23.60;99.90;;;;;;4999312;28;20049;-70
2022/08/12 11:27:25;;;;;;;1.05;0.95;;;23.70;99.90;;;;;;4997143;28;20145;-72
2022/08/12 11:29:55;;;;;;;0.82;0.82;;;23.70;99.90;;;;;;5000369;28;20121;-67
2022/08/12 11:32:33;;;;;;;1.20;1.10;;;23.80;99.90;;;;;;5000188;28;20373;-68
2022/08/12 11:35:05;;;;;;;1.10;1.00;;;23.60;99.90;;;;;;4999780;28;20038;-67
2022/08/12 11:37:34;;;;;;;1.13;1.00;;;23.50;99.90;;;;;;4977630;28;20090;-69
2022/08/12 11:40:21;;;;;;;2.88;0.95;;;23.50;99.90;;;;;;4992897;28;20516;-74
2022/08/12 11:42:48;;;;;;;1.40;1.30;;;23.70;99.90;;;;;;5007539;28;20168;-69
2022/08/12 11:45:18;;;;;;;2.33;1.05;;;23.70;99.90;;;;;;4981060;28;20050;-73
2022/08/12 11:47:45;;;;;;;1.10;1.00;;;23.70;99.90;;;;;;5007075;28;20555;-71
2022/08/12 11:50:14;;;;;;;0.70;0.63;;;23.80;99.90;;;;;;4979385;28;20058;-67
2022/08/12 11:52:46;;;;;;;3.25;1.25;;;24.00;99.90;;;;;;4991806;28;20041;-71
2022/08/12 11:55:23;;;;;;;1.13;0.80;;;24.10;99.90;;;;;;4997086;28;20042;-70
2022/08/12 11:57:53;;;;;;;1.02;0.88;;;24.10;99.90;;;;;;4998612;28;20132;-71
2022/08/12 12:00:40;;;;;;;;;;;24.30;99.90;;;;;;4987072;28;20046;-71
2022/08/12 12:03:27;;;;;;;2.25;1.02;;;24.20;99.90;;;;;;4979086;28;19975;-70
2022/08/12 12:06:13;;;;;;;0.52;0.52;;;24.40;99.90;;;;;;4997001;28;20050;-73
2022/08/12 12:08:44;;;;;;;1.10;0.90;;;24.50;99.90;;;;;;4995457;28;20058;-68
2022/08/12 12:11:17;;;;;;;2.13;0.68;;;24.50;99.90;;;;;;4996315;28;20054;-70
2022/08/12 12:13:45;;;;;;;1.45;0.93;;;24.60;99.90;;;;;;4997319;28;20373;-70
2022/08/12 12:16:32;;;;;;;0.57;0.57;;;24.70;99.90;;;;;;4997850;28;20068;-72
2022/08/12 12:19:07;;;;;;;1.70;1.17;;;24.90;99.90;;;;;;4997849;28;20064;-74
2022/08/12 12:21:36;;;;;;;1.20;0.65;;;24.90;99.90;;;;;;4976763;28;20503;-74
2022/08/12 12:24:15;;;;;;;0.73;0.73;;;25.00;99.90;;;;;;4977536;28;20575;-70
2022/08/12 12:26:51;;;;;;;1.67;0.77;;;25.00;99.90;;;;;;4978065;28;20088;-72
2022/08/12 12:29:28;;;;;;;1.38;0.85;;;25.20;99.90;;;;;;5002355;28;20064;-70
2022/08/12 12:32:16;;;;;;;1.05;0.68;;;25.20;99.90;;;;;;4997115;28;20045;-72
2022/08/12 12:34:44;;;;;;;0.90;0.90;;;25.50;99.90;;;;;;4997409;28;20120;-71
2022/08/12 12:37:32;;;;;;;0.93;0.93;;;25.50;99.90;;;;;;5001639;28;20673;-72
2022/08/12 12:40:19;;;;;;;3.75;1.02;;;25.30;99.90;;;;;;5000830;28;20081;-71
2022/08/12 12:42:46;;;;;;;1.13;0.70;;;25.20;99.90;;;;;;4997618;28;20118;-70
2022/08/12 12:45:28;;;;;;;0.68;0.68;;;25.30;99.90;;;;;;4995341;28;20053;-68
2022/08/12 12:48:01;;;;;;;2.15;0.73;;;25.40;99.90;;;;;;4996605;28;20092;-71
2022/08/12 12:50:37;;;;;;;0.98;0.88;;;25.20;99.90;;;;;;4996517;28;20052;-70
2022/08/12 12:53:20;;;;;;;1.48;1.38;;;25.20;99.90;;;;;;4994743;28;20139;-73
2022/08/12 12:56:14;;;;;;;0.80;0.80;;;25.10;99.90;;;;;;4996836;28;20052;-68
2022/08/12 12:58:42;;;;;;;2.03;1.05;;;25.00;99.90;;;;;;4997500;28;20907;-69
2022/08/12 13:01:12;;;;;;;1.55;1.40;;;24.90;99.90;;;;;;4992811;28;20282;-70
2022/08/12 13:03:56;;;;;;;2.80;1.10;;;24.80;99.90;;;;;;4997006;28;20057;-69
2022/08/12 13:06:29;;;;;;;2.15;1.13;;;24.80;99.90;;;;;;4995037;28;20161;-68
2022/08/12 13:09:00;;;;;;;1.10;1.00;;;24.80;99.90;;;;;;4995383;28;20389;-69
2022/08/12 13:11:30;;;;;;;2.58;1.25;;;24.90;99.90;;;;;;4994735;28;20088;-69
2022/08/12 13:14:12;;;;;;;1.52;1.20;;;24.80;99.90;;;;;;4996196;28;20046;-72
2022/08/12 13:16:59;;;;;;;1.80;1.42;;;24.70;99.90;;;;;;4995321;28;20054;-70
2022/08/12 13:19:29;;;;;;;2.20;1.60;;;24.90;99.90;;;;;;4994311;28;20192;-67
2022/08/12 13:22:17;;;;;;;3.42;1.52;;;25.00;99.90;;;;;;4996483;28;20054;-74
2022/08/12 13:24:47;;;;;;;0.77;0.77;;;25.20;99.90;;;;;;4996523;28;20455;-68
2022/08/12 13:27:35;;;;;;;0.80;0.80;;;25.30;99.90;;;;;;4993326;28;20337;-69
2022/08/12 13:30:08;;;;;;;2.00;1.33;;;25.40;99.90;;;;;;4995547;28;20058;-70
2022/08/12 13:32:44;;;;;;;1.63;1.45;;;25.40;99.90;;;;;;4995268;28;20068;-68
2022/08/12 13:35:28;;;;;;;1.10;0.90;;;25.50;99.90;;;;;;4993273;28;20488;-71
2022/08/12 13:38:15;;;;;;;1.42;1.00;;;25.70;99.90;;;;;;4994761;28;20054;-68
2022/08/12 13:41:02;;;;;;;1.67;0.95;;;26.00;99.90;;;;;;4995140;28;20050;-70
2022/08/12 13:43:29;;;;;;;1.10;1.00;;;26.10;99.90;;;;;;4993001;28;20125;-69
2022/08/12 13:46:08;;;;;;;0.88;0.88;;;26.10;99.90;;;;;;4995493;28;20103;-68
2022/08/12 13:48:41;;;;;;;1.00;0.90;;;26.00;99.90;;;;;;4994373;28;20369;-67
2022/08/12 13:51:12;;;;;;;3.58;1.55;;;26.00;99.90;;;;;;4992835;28;20042;-71
2022/08/12 13:53:39;;;;;;;0.70;0.70;;;26.10;99.90;;;;;;4994638;28;20050;-72
2022/08/12 13:56:31;;;;;;;1.48;0.93;;;26.20;99.90;;;;;;4994597;28;20562;-71
2022/08/12 13:59:06;;;;;;;3.70;1.23;;;26.30;99.90;;;;;;4994617;28;20054;-70
2022/08/12 14:01:36;;;;;;;0.98;0.98;;;26.40;99.90;;;;;;4981479;28;20050;-70
2022/08/12 14:04:08;;;;;;;0.82;0.82;;;26.50;99.90;;;;;;4997154;28;20056;-71
2022/08/12 14:06:39;;;;;;;3.17;1.35;;;26.70;99.90;;;;;;4993229;28;20082;-70
2022/08/12 14:09:06;;;;;;;1.33;0.80;;;26.80;99.90;;;;;;4992788;28;20131;-68
2022/08/12 14:11:45;;;;;;;0.65;0.65;;;26.90;99.90;;;;;;4970632;28;20220;-71
2022/08/12 14:14:27;;;;;;;1.38;0.80;;;27.10;99.90;;;;;;4974293;28;20050;-67
2022/08/12 14:17:02;;;;;;;0.85;0.63;;;27.40;99.90;;;;;;4974084;28;20054;-68
2022/08/12 14:19:31;;;;;;;0.75;0.75;;;27.80;99.10;;;;;;4980413;28;20057;-69
2022/08/12 14:22:09;;;;;;;1.52;1.35;;;27.80;98.10;;;;;;4999504;28;20509;-71
2022/08/12 14:24:36;;;;;;;1.42;0.95;;;27.90;97.80;;;;;;4996864;28;20112;-71
2022/08/12 14:27:08;;;;;;;0.95;0.75;;;28.10;96.70;;;;;;4995384;28;20062;-70
2022/08/12 14:29:40;;;;;;;2.72;1.05;;;28.10;96.50;;;;;;4996774;28;20096;-71
2022/08/12 14:32:33;;;;;;;0.93;0.90;;;28.30;99.50;;;;;;4996236;28;20415;-70
2022/08/12 14:35:05;;;;;;;0.93;0.82;;;28.10;99.90;;;;;;4996465;28;20053;-68
2022/08/12 14:37:38;;;;;;;1.00;0.98;;;27.80;99.90;;;;;;5001501;28;20744;-69
2022/08/12 14:40:24;;;;;;;1.08;0.88;;;27.90;99.90;;;;;;4999117;28;20088;-70
2022/08/12 14:42:54;;;;;;;2.40;0.95;;;27.70;99.80;;;;;;4997234;28;20350;-72
2022/08/12 14:45:23;;;;;;;1.57;1.13;;;27.90;99.90;;;;;;4994643;28;20030;-70
2022/08/12 14:48:12;;;;;;;1.88;1.60;;;28.00;99.90;;;;;;4995885;28;20045;-74
2022/08/12 14:50:41;;;;;;;3.45;1.30;;;28.10;99.90;;;;;;4996373;28;20153;-69
2022/08/12 14:53:30;;;;;;;1.23;0.90;;;28.10;99.90;;;;;;4994125;28;20073;-72
2022/08/12 14:56:19;;;;;;;1.38;1.08;;;28.10;99.90;;;;;;4996533;28;20045;-71
2022/08/12 15:02:15;;;;;;;1.73;1.45;;;27.90;99.90;;;;;;4996428;28;20052;-71
2022/08/12 15:04:43;;;;;;;0.85;0.85;;;28.20;99.90;;;;;;4996382;28;20511;-69
2022/08/12 15:07:12;;;;;;;1.17;0.63;;;28.30;99.90;;;;;;4980394;28;20437;-72
2022/08/12 15:09:59;;;;;;;2.05;0.80;;;28.30;97.60;;;;;;5000756;28;21214;-70
2022/08/12 15:12:27;;;;;;;0.82;0.70;;;28.70;98.00;;;;;;4995122;28;20074;-72
2022/08/12 15:14:57;;;;;;;0.70;0.65;;;29.00;95.90;;;;;;4995229;28;20630;-72
2022/08/12 15:17:26;;;;;;;1.20;0.60;;;29.10;95.20;;;;;;4993709;28;20080;-70
2022/08/12 15:20:05;;;;;;;1.53;0.97;;;29.00;95.10;;;;;;4994429;28;20049;-68
2022/08/12 15:22:52;;;;;;;0.80;0.70;;;29.20;95.10;;;;;;4994873;28;20289;-73